sensor_id;sensor_type;location;lat;lon;timestamp;temperature;humidity
6439;DHT22;3252;52.540;13.290;2023-04-03T00:01:49;1.60;99.90
6439;DHT22;3252;52.540;13.290;2023-04-03T00:03:55;1.60;99.90
6439;DHT22;3252;52.540;13.290;2023-04-03T00:05:57;1.60;99.90
6439;DHT22;3252;52.540;13.290;2023-04-03T00:08:02;1.60;99.90
6439;DHT22;3252;52.540;13.290;2023-04-03T00:10:11;1.60;99.90
6439;DHT22;3252;52.540;13.290;2023-04-03T00:12:14;1.60;99.90
6439;DHT22;3252;52.540;13.290;2023-04-03T00:14:18;1.60;99.90
6439;DHT22;3252;52.540;13.290;2023-04-03T00:16:21;1.60;99.90
6439;DHT22;3252;52.540;13.290;2023-04-03T00:18:26;1.70;99.90
6439;DHT22;3252;52.540;13.290;2023-04-03T00:20:29;1.60;99.90
6439;DHT22;3252;52.540;13.290;2023-04-03T00:22:31;1.60;99.90
6439;DHT22;3252;52.540;13.290;2023-04-03T00:24:35;1.50;99.90
6439;DHT22;3252;52.540;13.290;2023-04-03T00:26:42;1.50;99.90
6439;DHT22;3252;52.540;13.290;2023-04-03T00:28:45;1.50;99.90
6439;DHT22;3252;52.540;13.290;2023-04-03T00:30:49;1.50;99.90
6439;DHT22;3252;52.540;13.290;2023-04-03T00:32:54;1.50;99.90
6439;DHT22;3252;52.540;13.290;2023-04-03T00:34:57;1.50;99.90
6439;DHT22;3252;52.540;13.290;2023-04-03T00:36:59;1.50;99.90
6439;DHT22;3252;52.540;13.290;2023-04-03T00:39:02;1.50;99.90
6439;DHT22;3252;52.540;13.290;2023-04-03T00:41:33;1.50;99.90
6439;DHT22;3252;52.540;13.290;2023-04-03T00:43:37;1.50;99.90
6439;DHT22;3252;52.540;13.290;2023-04-03T00:45:41;1.50;99.90
6439;DHT22;3252;52.540;13.290;2023-04-03T00:47:44;1.40;99.90
6439;DHT22;3252;52.540;13.290;2023-04-03T00:49:47;1.40;99.90
6439;DHT22;3252;52.540;13.290;2023-04-03T00:51:53;1.40;99.90
6439;DHT22;3252;52.540;13.290;2023-04-03T00:54:00;1.40;99.90
6439;DHT22;3252;52.540;13.290;2023-04-03T00:56:06;1.40;99.90
6439;DHT22;3252;52.540;13.290;2023-04-03T00:58:10;1.30;99.90
6439;DHT22;3252;52.540;13.290;2023-04-03T01:00:20;1.30;99.90
6439;DHT22;3252;52.540;13.290;2023-04-03T01:02:23;1.40;99.90
6439;DHT22;3252;52.540;13.290;2023-04-03T01:04:28;1.30;99.90
6439;DHT22;3252;52.540;13.290;2023-04-03T01:06:34;1.30;99.90
6439;DHT22;3252;52.540;13.290;2023-04-03T01:08:43;1.30;99.90
6439;DHT22;3252;52.540;13.290;2023-04-03T01:10:47;1.30;99.90
6439;DHT22;3252;52.540;13.290;2023-04-03T01:12:54;1.30;99.90
6439;DHT22;3252;52.540;13.290;2023-04-03T01:14:57;1.30;99.90
6439;DHT22;3252;52.540;13.290;2023-04-03T01:17:29;1.30;99.90
6439;DHT22;3252;52.540;13.290;2023-04-03T01:19:32;1.30;99.90
6439;DHT22;3252;52.540;13.290;2023-04-03T01:22:03;1.30;99.90
6439;DHT22;3252;52.540;13.290;2023-04-03T01:24:25;1.30;99.90
6439;DHT22;3252;52.540;13.290;2023-04-03T01:26:30;1.30;99.90
6439;DHT22;3252;52.540;13.290;2023-04-03T01:28:34;1.30;99.90
6439;DHT22;3252;52.540;13.290;2023-04-03T01:30:41;1.30;99.90
6439;DHT22;3252;52.540;13.290;2023-04-03T01:32:47;1.30;99.90
6439;DHT22;3252;52.540;13.290;2023-04-03T01:34:52;1.20;99.90
6439;DHT22;3252;52.540;13.290;2023-04-03T01:36:56;1.20;99.90
6439;DHT22;3252;52.540;13.290;2023-04-03T01:39:00;1.20;99.90
6439;DHT22;3252;52.540;13.290;2023-04-03T01:41:03;1.30;99.90
6439;DHT22;3252;52.540;13.290;2023-04-03T01:43:06;1.30;99.90
6439;DHT22;3252;52.540;13.290;2023-04-03T01:45:09;1.30;99.90
6439;DHT22;3252;52.540;13.290;2023-04-03T01:47:12;1.30;99.90
6439;DHT22;3252;52.540;13.290;2023-04-03T01:49:17;1.30;99.90
6439;DHT22;3252;52.540;13.290;2023-04-03T01:51:28;1.30;99.90
6439;DHT22;3252;52.540;13.290;2023-04-03T01:53:32;1.30;99.90
6439;DHT22;3252;52.540;13.290;2023-04-03T01:55:34;1.20;99.90
6439;DHT22;3252;52.540;13.290;2023-04-03T01:57:40;1.20;99.90
6439;DHT22;3252;52.540;13.290;2023-04-03T01:59:42;1.10;99.90
6439;DHT22;3252;52.540;13.290;2023-04-03T02:01:45;1.20;99.90
6439;DHT22;3252;52.540;13.290;2023-04-03T02:03:48;1.20;99.90
6439;DHT22;3252;52.540;13.290;2023-04-03T02:05:52;1.10;99.90
6439;DHT22;3252;52.540;13.290;2023-04-03T02:07:54;1.20;99.90
6439;DHT22;3252;52.540;13.290;2023-04-03T02:10:00;1.10;99.90
6439;DHT22;3252;52.540;13.290;2023-04-03T02:12:04;1.10;99.90
6439;DHT22;3252;52.540;13.290;2023-04-03T02:14:07;1.10;99.90
6439;DHT22;3252;52.540;13.290;2023-04-03T02:16:11;1.00;99.90
6439;DHT22;3252;52.540;13.290;2023-04-03T02:18:14;1.00;99.90
6439;DHT22;3252;52.540;13.290;2023-04-03T02:20:17;1.10;99.90
6439;DHT22;3252;52.540;13.290;2023-04-03T02:22:20;1.00;99.90
6439;DHT22;3252;52.540;13.290;2023-04-03T02:24:23;1.00;99.90
6439;DHT22;3252;52.540;13.290;2023-04-03T02:26:25;0.90;99.90
6439;DHT22;3252;52.540;13.290;2023-04-03T02:28:30;0.90;99.90
6439;DHT22;3252;52.540;13.290;2023-04-03T02:30:33;0.90;99.90
6439;DHT22;3252;52.540;13.290;2023-04-03T02:32:39;0.80;99.90
6439;DHT22;3252;52.540;13.290;2023-04-03T02:34:47;0.80;99.90
6439;DHT22;3252;52.540;13.290;2023-04-03T02:36:50;0.70;99.90
6439;DHT22;3252;52.540;13.290;2023-04-03T02:38:55;0.70;99.90
6439;DHT22;3252;52.540;13.290;2023-04-03T02:41:05;0.70;99.90
6439;DHT22;3252;52.540;13.290;2023-04-03T02:43:08;0.70;99.90
6439;DHT22;3252;52.540;13.290;2023-04-03T02:45:16;0.60;99.90
6439;DHT22;3252;52.540;13.290;2023-04-03T02:47:18;0.60;99.90
6439;DHT22;3252;52.540;13.290;2023-04-03T02:49:20;0.60;99.90
6439;DHT22;3252;52.540;13.290;2023-04-03T02:51:23;0.50;99.90
6439;DHT22;3252;52.540;13.290;2023-04-03T02:53:30;0.50;99.90
6439;DHT22;3252;52.540;13.290;2023-04-03T02:55:41;0.50;99.90
6439;DHT22;3252;52.540;13.290;2023-04-03T02:57:43;0.50;99.90
6439;DHT22;3252;52.540;13.290;2023-04-03T02:59:47;0.50;99.90
6439;DHT22;3252;52.540;13.290;2023-04-03T03:01:49;0.50;99.90
6439;DHT22;3252;52.540;13.290;2023-04-03T03:03:57;0.50;99.90
6439;DHT22;3252;52.540;13.290;2023-04-03T03:06:06;0.40;99.90
6439;DHT22;3252;52.540;13.290;2023-04-03T03:08:09;0.40;99.90
6439;DHT22;3252;52.540;13.290;2023-04-03T03:10:12;0.40;99.90
6439;DHT22;3252;52.540;13.290;2023-04-03T03:12:16;0.40;99.90
6439;DHT22;3252;52.540;13.290;2023-04-03T03:14:22;0.40;99.90
6439;DHT22;3252;52.540;13.290;2023-04-03T03:16:27;0.40;99.90
6439;DHT22;3252;52.540;13.290;2023-04-03T03:18:31;0.30;99.90
6439;DHT22;3252;52.540;13.290;2023-04-03T03:20:37;0.30;99.90
6439;DHT22;3252;52.540;13.290;2023-04-03T03:22:39;0.30;99.90
6439;DHT22;3252;52.540;13.290;2023-04-03T03:24:41;0.30;99.90
6439;DHT22;3252;52.540;13.290;2023-04-03T03:26:48;0.40;99.90
6439;DHT22;3252;52.540;13.290;2023-04-03T03:28:52;0.40;99.90
6439;DHT22;3252;52.540;13.290;2023-04-03T03:30:59;0.40;99.90
6439;DHT22;3252;52.540;13.290;2023-04-03T03:33:01;0.40;99.90
6439;DHT22;3252;52.540;13.290;2023-04-03T03:35:04;0.40;99.90
6439;DHT22;3252;52.540;13.290;2023-04-03T03:37:07;0.30;99.90
6439;DHT22;3252;52.540;13.290;2023-04-03T03:39:10;0.40;99.90
6439;DHT22;3252;52.540;13.290;2023-04-03T03:41:12;0.40;99.90
6439;DHT22;3252;52.540;13.290;2023-04-03T03:43:20;0.40;99.90
6439;DHT22;3252;52.540;13.290;2023-04-03T03:45:25;0.40;99.90
6439;DHT22;3252;52.540;13.290;2023-04-03T03:47:28;0.40;99.90
6439;DHT22;3252;52.540;13.290;2023-04-03T03:49:31;0.40;99.90
6439;DHT22;3252;52.540;13.290;2023-04-03T03:51:33;0.40;99.90
6439;DHT22;3252;52.540;13.290;2023-04-03T03:53:36;0.40;99.90
6439;DHT22;3252;52.540;13.290;2023-04-03T03:55:42;0.40;99.90
6439;DHT22;3252;52.540;13.290;2023-04-03T03:57:45;0.40;99.90
6439;DHT22;3252;52.540;13.290;2023-04-03T03:59:52;0.40;99.90
6439;DHT22;3252;52.540;13.290;2023-04-03T04:01:56;0.40;99.90
6439;DHT22;3252;52.540;13.290;2023-04-03T04:03:58;0.40;99.90
6439;DHT22;3252;52.540;13.290;2023-04-03T04:06:05;0.40;99.90
6439;DHT22;3252;52.540;13.290;2023-04-03T04:08:08;0.40;99.90
6439;DHT22;3252;52.540;13.290;2023-04-03T04:10:10;0.40;99.90
6439;DHT22;3252;52.540;13.290;2023-04-03T04:12:21;0.40;99.90
6439;DHT22;3252;52.540;13.290;2023-04-03T04:14:24;0.40;99.90
6439;DHT22;3252;52.540;13.290;2023-04-03T04:16:27;0.40;99.90
6439;DHT22;3252;52.540;13.290;2023-04-03T04:18:33;0.40;99.90
6439;DHT22;3252;52.540;13.290;2023-04-03T04:20:38;0.40;99.90
6439;DHT22;3252;52.540;13.290;2023-04-03T04:22:40;0.40;99.90
6439;DHT22;3252;52.540;13.290;2023-04-03T04:24:43;0.40;99.90
6439;DHT22;3252;52.540;13.290;2023-04-03T04:26:47;0.30;99.90
6439;DHT22;3252;52.540;13.290;2023-04-03T04:28:54;0.30;99.90
6439;DHT22;3252;52.540;13.290;2023-04-03T04:30:57;0.30;99.90
6439;DHT22;3252;52.540;13.290;2023-04-03T04:33:01;0.30;99.90
6439;DHT22;3252;52.540;13.290;2023-04-03T04:35:08;0.30;99.90
6439;DHT22;3252;52.540;13.290;2023-04-03T04:37:15;0.30;99.90
6439;DHT22;3252;52.540;13.290;2023-04-03T04:39:21;0.30;99.90
6439;DHT22;3252;52.540;13.290;2023-04-03T04:41:25;0.30;99.90
6439;DHT22;3252;52.540;13.290;2023-04-03T04:43:30;0.30;99.90
6439;DHT22;3252;52.540;13.290;2023-04-03T04:45:33;0.30;99.90
6439;DHT22;3252;52.540;13.290;2023-04-03T04:48:03;0.30;99.90
6439;DHT22;3252;52.540;13.290;2023-04-03T04:50:08;0.30;99.90
6439;DHT22;3252;52.540;13.290;2023-04-03T04:52:14;0.30;99.90
6439;DHT22;3252;52.540;13.290;2023-04-03T04:54:17;0.30;99.90
6439;DHT22;3252;52.540;13.290;2023-04-03T04:56:22;0.30;99.90
6439;DHT22;3252;52.540;13.290;2023-04-03T04:58:26;0.30;99.90
6439;DHT22;3252;52.540;13.290;2023-04-03T05:00:33;0.30;99.90
6439;DHT22;3252;52.540;13.290;2023-04-03T05:02:46;0.30;99.90
6439;DHT22;3252;52.540;13.290;2023-04-03T05:04:49;0.40;99.90
6439;DHT22;3252;52.540;13.290;2023-04-03T05:07:01;0.30;99.90
6439;DHT22;3252;52.540;13.290;2023-04-03T05:09:09;0.30;99.90
6439;DHT22;3252;52.540;13.290;2023-04-03T05:11:15;0.40;99.90
6439;DHT22;3252;52.540;13.290;2023-04-03T05:13:19;0.30;99.90
6439;DHT22;3252;52.540;13.290;2023-04-03T05:15:22;0.30;99.90
6439;DHT22;3252;52.540;13.290;2023-04-03T05:17:28;0.40;99.90
6439;DHT22;3252;52.540;13.290;2023-04-03T05:19:34;0.40;99.90
6439;DHT22;3252;52.540;13.290;2023-04-03T05:21:41;0.40;99.90
6439;DHT22;3252;52.540;13.290;2023-04-03T05:23:50;0.50;99.90
6439;DHT22;3252;52.540;13.290;2023-04-03T05:26:18;0.50;99.90
6439;DHT22;3252;52.540;13.290;2023-04-03T05:28:25;0.50;99.90
6439;DHT22;3252;52.540;13.290;2023-04-03T05:30:28;0.60;99.90
6439;DHT22;3252;52.540;13.290;2023-04-03T05:32:41;0.70;99.90
6439;DHT22;3252;52.540;13.290;2023-04-03T05:34:52;0.80;99.90
6439;DHT22;3252;52.540;13.290;2023-04-03T05:36:56;0.90;99.90
6439;DHT22;3252;52.540;13.290;2023-04-03T05:39:04;0.90;99.90
6439;DHT22;3252;52.540;13.290;2023-04-03T05:41:15;0.90;99.90
6439;DHT22;3252;52.540;13.290;2023-04-03T05:43:27;1.00;99.90
6439;DHT22;3252;52.540;13.290;2023-04-03T05:45:31;1.10;99.90
6439;DHT22;3252;52.540;13.290;2023-04-03T05:47:36;1.10;99.90
6439;DHT22;3252;52.540;13.290;2023-04-03T05:49:42;1.20;99.90
6439;DHT22;3252;52.540;13.290;2023-04-03T05:51:48;1.10;99.90
6439;DHT22;3252;52.540;13.290;2023-04-03T05:54:04;1.20;99.90
6439;DHT22;3252;52.540;13.290;2023-04-03T05:56:08;1.30;99.90
6439;DHT22;3252;52.540;13.290;2023-04-03T05:58:17;1.50;99.90
6439;DHT22;3252;52.540;13.290;2023-04-03T06:00:22;1.80;99.90
6439;DHT22;3252;52.540;13.290;2023-04-03T06:02:33;2.10;99.90
6439;DHT22;3252;52.540;13.290;2023-04-03T06:04:36;2.30;99.90
6439;DHT22;3252;52.540;13.290;2023-04-03T06:06:47;2.30;99.90
6439;DHT22;3252;52.540;13.290;2023-04-03T06:08:50;2.20;99.90
6439;DHT22;3252;52.540;13.290;2023-04-03T06:10:54;2.30;99.90
6439;DHT22;3252;52.540;13.290;2023-04-03T06:12:57;2.30;99.90
6439;DHT22;3252;52.540;13.290;2023-04-03T06:14:59;2.60;99.90
6439;DHT22;3252;52.540;13.290;2023-04-03T06:17:02;3.00;99.90
6439;DHT22;3252;52.540;13.290;2023-04-03T06:19:05;3.30;99.60
6439;DHT22;3252;52.540;13.290;2023-04-03T06:21:07;3.10;99.50
6439;DHT22;3252;52.540;13.290;2023-04-03T06:23:10;3.40;98.60
6439;DHT22;3252;52.540;13.290;2023-04-03T06:25:12;3.40;98.70
6439;DHT22;3252;52.540;13.290;2023-04-03T06:27:16;3.40;98.30
6439;DHT22;3252;52.540;13.290;2023-04-03T06:29:19;3.50;98.20
6439;DHT22;3252;52.540;13.290;2023-04-03T06:31:22;3.80;97.90
6439;DHT22;3252;52.540;13.290;2023-04-03T06:33:24;3.50;97.60
6439;DHT22;3252;52.540;13.290;2023-04-03T06:35:27;3.30;98.70
6439;DHT22;3252;52.540;13.290;2023-04-03T06:37:31;3.40;98.70
6439;DHT22;3252;52.540;13.290;2023-04-03T06:39:33;3.50;98.90
6439;DHT22;3252;52.540;13.290;2023-04-03T06:41:36;3.70;98.70
6439;DHT22;3252;52.540;13.290;2023-04-03T06:43:40;3.80;98.70
6439;DHT22;3252;52.540;13.290;2023-04-03T06:45:42;4.20;97.50
6439;DHT22;3252;52.540;13.290;2023-04-03T06:47:44;4.50;96.00
6439;DHT22;3252;52.540;13.290;2023-04-03T06:49:47;4.70;95.60
6439;DHT22;3252;52.540;13.290;2023-04-03T06:51:49;4.70;94.90
6439;DHT22;3252;52.540;13.290;2023-04-03T06:53:53;4.30;95.70
6439;DHT22;3252;52.540;13.290;2023-04-03T06:55:56;4.60;95.90
6439;DHT22;3252;52.540;13.290;2023-04-03T06:57:58;5.10;94.60
6439;DHT22;3252;52.540;13.290;2023-04-03T07:00:04;5.30;94.30
6439;DHT22;3252;52.540;13.290;2023-04-03T07:02:06;5.50;91.10
6439;DHT22;3252;52.540;13.290;2023-04-03T07:04:08;5.00;92.60
6439;DHT22;3252;52.540;13.290;2023-04-03T07:06:12;4.60;92.30
6439;DHT22;3252;52.540;13.290;2023-04-03T07:08:14;4.40;92.50
6439;DHT22;3252;52.540;13.290;2023-04-03T07:10:17;4.60;91.50
6439;DHT22;3252;52.540;13.290;2023-04-03T07:12:22;5.10;90.60
6439;DHT22;3252;52.540;13.290;2023-04-03T07:14:24;4.70;90.80
6439;DHT22;3252;52.540;13.290;2023-04-03T07:16:31;4.90;89.10
6439;DHT22;3252;52.540;13.290;2023-04-03T07:18:33;4.70;90.30
6439;DHT22;3252;52.540;13.290;2023-04-03T07:20:36;4.80;90.30
6439;DHT22;3252;52.540;13.290;2023-04-03T07:22:39;4.50;90.70
6439;DHT22;3252;52.540;13.290;2023-04-03T07:24:41;4.40;91.30
6439;DHT22;3252;52.540;13.290;2023-04-03T07:26:44;4.20;91.90
6439;DHT22;3252;52.540;13.290;2023-04-03T07:28:47;4.20;90.10
6439;DHT22;3252;52.540;13.290;2023-04-03T07:30:51;4.20;90.90
6439;DHT22;3252;52.540;13.290;2023-04-03T07:32:55;4.00;88.30
6439;DHT22;3252;52.540;13.290;2023-04-03T07:34:57;3.90;90.10
6439;DHT22;3252;52.540;13.290;2023-04-03T07:37:00;3.80;90.70
6439;DHT22;3252;52.540;13.290;2023-04-03T07:39:03;4.00;89.50
6439;DHT22;3252;52.540;13.290;2023-04-03T07:41:05;4.20;89.20
6439;DHT22;3252;52.540;13.290;2023-04-03T07:43:08;4.10;82.10
6439;DHT22;3252;52.540;13.290;2023-04-03T07:45:10;4.40;82.00
6439;DHT22;3252;52.540;13.290;2023-04-03T07:47:13;4.90;75.20
6439;DHT22;3252;52.540;13.290;2023-04-03T07:49:18;4.80;68.90
6439;DHT22;3252;52.540;13.290;2023-04-03T07:51:20;4.70;71.30
6439;DHT22;3252;52.540;13.290;2023-04-03T07:53:23;5.10;73.80
6439;DHT22;3252;52.540;13.290;2023-04-03T07:55:25;5.00;70.40
6439;DHT22;3252;52.540;13.290;2023-04-03T07:57:27;5.00;68.70
6439;DHT22;3252;52.540;13.290;2023-04-03T07:59:30;4.40;67.90
6439;DHT22;3252;52.540;13.290;2023-04-03T08:01:33;4.10;73.00
6439;DHT22;3252;52.540;13.290;2023-04-03T08:03:36;4.20;74.70
6439;DHT22;3252;52.540;13.290;2023-04-03T08:05:41;4.30;75.50
6439;DHT22;3252;52.540;13.290;2023-04-03T08:07:44;4.60;70.30
6439;DHT22;3252;52.540;13.290;2023-04-03T08:09:47;4.30;64.30
6439;DHT22;3252;52.540;13.290;2023-04-03T08:11:50;4.50;66.80
6439;DHT22;3252;52.540;13.290;2023-04-03T08:13:54;4.50;69.70
6439;DHT22;3252;52.540;13.290;2023-04-03T08:15:57;4.50;68.10
6439;DHT22;3252;52.540;13.290;2023-04-03T08:18:00;5.00;60.10
6439;DHT22;3252;52.540;13.290;2023-04-03T08:20:03;5.00;59.60
6439;DHT22;3252;52.540;13.290;2023-04-03T08:22:07;4.50;63.90
6439;DHT22;3252;52.540;13.290;2023-04-03T08:24:09;4.40;66.80
6439;DHT22;3252;52.540;13.290;2023-04-03T08:26:13;4.30;70.00
6439;DHT22;3252;52.540;13.290;2023-04-03T08:28:16;4.30;69.50
6439;DHT22;3252;52.540;13.290;2023-04-03T08:30:18;4.40;69.10
6439;DHT22;3252;52.540;13.290;2023-04-03T08:32:20;4.60;67.50
6439;DHT22;3252;52.540;13.290;2023-04-03T08:34:23;4.40;63.20
6439;DHT22;3252;52.540;13.290;2023-04-03T08:36:27;4.30;65.00
6439;DHT22;3252;52.540;13.290;2023-04-03T08:38:31;4.20;64.50
6439;DHT22;3252;52.540;13.290;2023-04-03T08:40:33;3.90;65.80
6439;DHT22;3252;52.540;13.290;2023-04-03T08:42:42;4.00;66.10
6439;DHT22;3252;52.540;13.290;2023-04-03T08:44:50;3.90;66.40
6439;DHT22;3252;52.540;13.290;2023-04-03T08:47:09;3.90;68.50
6439;DHT22;3252;52.540;13.290;2023-04-03T08:49:21;4.00;69.80
6439;DHT22;3252;52.540;13.290;2023-04-03T08:51:26;3.90;76.50
6439;DHT22;3252;52.540;13.290;2023-04-03T08:53:34;4.00;74.70
6439;DHT22;3252;52.540;13.290;2023-04-03T08:55:40;3.90;74.20
6439;DHT22;3252;52.540;13.290;2023-04-03T08:57:45;3.80;78.90
6439;DHT22;3252;52.540;13.290;2023-04-03T08:59:50;3.90;78.90
6439;DHT22;3252;52.540;13.290;2023-04-03T09:01:53;4.00;75.50
6439;DHT22;3252;52.540;13.290;2023-04-03T09:03:56;4.00;77.70
6439;DHT22;3252;52.540;13.290;2023-04-03T09:06:02;4.20;79.20
6439;DHT22;3252;52.540;13.290;2023-04-03T09:08:11;4.10;73.50
6439;DHT22;3252;52.540;13.290;2023-04-03T09:10:22;4.10;69.70
6439;DHT22;3252;52.540;13.290;2023-04-03T09:12:27;4.10;67.70
6439;DHT22;3252;52.540;13.290;2023-04-03T09:14:38;3.90;67.90
6439;DHT22;3252;52.540;13.290;2023-04-03T09:16:48;3.90;70.30
6439;DHT22;3252;52.540;13.290;2023-04-03T09:18:55;4.00;71.50
6439;DHT22;3252;52.540;13.290;2023-04-03T09:21:05;4.10;72.80
6439;DHT22;3252;52.540;13.290;2023-04-03T09:23:17;4.20;69.80
6439;DHT22;3252;52.540;13.290;2023-04-03T09:25:25;4.30;69.80
6439;DHT22;3252;52.540;13.290;2023-04-03T09:27:29;4.30;71.20
6439;DHT22;3252;52.540;13.290;2023-04-03T09:29:40;4.20;71.20
6439;DHT22;3252;52.540;13.290;2023-04-03T09:31:44;4.20;73.60
6439;DHT22;3252;52.540;13.290;2023-04-03T09:33:48;4.30;68.00
6439;DHT22;3252;52.540;13.290;2023-04-03T09:35:52;4.10;65.80
6439;DHT22;3252;52.540;13.290;2023-04-03T09:38:16;4.10;69.20
6439;DHT22;3252;52.540;13.290;2023-04-03T09:40:35;4.40;66.60
6439;DHT22;3252;52.540;13.290;2023-04-03T09:42:40;4.90;63.70
6439;DHT22;3252;52.540;13.290;2023-04-03T09:44:54;5.10;64.50
6439;DHT22;3252;52.540;13.290;2023-04-03T09:46:57;4.90;59.10
6439;DHT22;3252;52.540;13.290;2023-04-03T09:49:02;5.00;63.30
6439;DHT22;3252;52.540;13.290;2023-04-03T09:51:05;5.00;58.40
6439;DHT22;3252;52.540;13.290;2023-04-03T09:53:34;5.00;58.80
6439;DHT22;3252;52.540;13.290;2023-04-03T09:55:43;5.10;57.40
6439;DHT22;3252;52.540;13.290;2023-04-03T09:57:46;5.30;63.70
6439;DHT22;3252;52.540;13.290;2023-04-03T09:59:58;5.50;56.30
6439;DHT22;3252;52.540;13.290;2023-04-03T10:02:03;5.30;56.70
6439;DHT22;3252;52.540;13.290;2023-04-03T10:04:09;5.30;56.20
6439;DHT22;3252;52.540;13.290;2023-04-03T10:06:23;4.80;55.70
6439;DHT22;3252;52.540;13.290;2023-04-03T10:08:30;4.60;55.90
6439;DHT22;3252;52.540;13.290;2023-04-03T10:10:33;4.70;57.50
6439;DHT22;3252;52.540;13.290;2023-04-03T10:12:37;4.90;61.90
6439;DHT22;3252;52.540;13.290;2023-04-03T10:14:40;5.10;58.70
6439;DHT22;3252;52.540;13.290;2023-04-03T10:17:02;5.10;61.10
6439;DHT22;3252;52.540;13.290;2023-04-03T10:19:28;5.10;58.10
6439;DHT22;3252;52.540;13.290;2023-04-03T10:21:37;5.10;55.60
6439;DHT22;3252;52.540;13.290;2023-04-03T10:23:46;5.00;54.30
6439;DHT22;3252;52.540;13.290;2023-04-03T10:25:59;5.00;55.70
6439;DHT22;3252;52.540;13.290;2023-04-03T10:28:11;5.10;59.10
6439;DHT22;3252;52.540;13.290;2023-04-03T10:30:35;5.20;64.30
6439;DHT22;3252;52.540;13.290;2023-04-03T10:32:53;5.20;54.80
6439;DHT22;3252;52.540;13.290;2023-04-03T10:35:02;5.00;53.10
6439;DHT22;3252;52.540;13.290;2023-04-03T10:37:17;5.20;53.60
6439;DHT22;3252;52.540;13.290;2023-04-03T10:39:28;5.60;55.30
6439;DHT22;3252;52.540;13.290;2023-04-03T10:41:47;5.70;55.90
6439;DHT22;3252;52.540;13.290;2023-04-03T10:44:02;5.50;51.30
6439;DHT22;3252;52.540;13.290;2023-04-03T10:46:11;5.40;53.10
6439;DHT22;3252;52.540;13.290;2023-04-03T10:48:22;5.50;54.20
6439;DHT22;3252;52.540;13.290;2023-04-03T10:50:38;6.00;52.20
6439;DHT22;3252;52.540;13.290;2023-04-03T10:52:47;8.00;46.80
6439;DHT22;3252;52.540;13.290;2023-04-03T10:54:56;7.20;46.50
6439;DHT22;3252;52.540;13.290;2023-04-03T10:57:06;7.20;48.20
6439;DHT22;3252;52.540;13.290;2023-04-03T10:59:19;7.00;48.00
6439;DHT22;3252;52.540;13.290;2023-04-03T11:01:26;7.60;47.70
6439;DHT22;3252;52.540;13.290;2023-04-03T11:03:35;7.90;45.30
6439;DHT22;3252;52.540;13.290;2023-04-03T11:05:41;7.80;46.50
6439;DHT22;3252;52.540;13.290;2023-04-03T11:07:48;7.40;46.70
6439;DHT22;3252;52.540;13.290;2023-04-03T11:09:55;6.80;47.50
6439;DHT22;3252;52.540;13.290;2023-04-03T11:12:02;6.70;48.00
6439;DHT22;3252;52.540;13.290;2023-04-03T11:14:11;6.50;47.20
6439;DHT22;3252;52.540;13.290;2023-04-03T11:16:22;6.60;47.50
6439;DHT22;3252;52.540;13.290;2023-04-03T11:18:28;6.30;48.70
6439;DHT22;3252;52.540;13.290;2023-04-03T11:20:33;6.10;49.70
6439;DHT22;3252;52.540;13.290;2023-04-03T11:22:41;5.80;50.20
6439;DHT22;3252;52.540;13.290;2023-04-03T11:24:51;5.90;52.00
6439;DHT22;3252;52.540;13.290;2023-04-03T11:26:55;5.80;51.00
6439;DHT22;3252;52.540;13.290;2023-04-03T11:29:00;5.60;51.30
6439;DHT22;3252;52.540;13.290;2023-04-03T11:31:22;5.50;51.70
6439;DHT22;3252;52.540;13.290;2023-04-03T11:33:43;5.60;52.00
6439;DHT22;3252;52.540;13.290;2023-04-03T11:35:51;5.70;56.10
6439;DHT22;3252;52.540;13.290;2023-04-03T11:37:54;5.80;55.50
6439;DHT22;3252;52.540;13.290;2023-04-03T11:40:00;5.80;53.60
6439;DHT22;3252;52.540;13.290;2023-04-03T11:42:15;5.80;52.80
6439;DHT22;3252;52.540;13.290;2023-04-03T11:44:34;5.90;53.40
6439;DHT22;3252;52.540;13.290;2023-04-03T11:46:52;6.00;53.60
6439;DHT22;3252;52.540;13.290;2023-04-03T11:48:55;5.80;54.10
6439;DHT22;3252;52.540;13.290;2023-04-03T11:50:58;5.70;53.10
6439;DHT22;3252;52.540;13.290;2023-04-03T11:53:03;5.80;56.60
6439;DHT22;3252;52.540;13.290;2023-04-03T11:57:49;5.70;54.80
6439;DHT22;3252;52.540;13.290;2023-04-03T12:02:40;5.20;56.10
6439;DHT22;3252;52.540;13.290;2023-04-03T12:07:24;5.20;56.70
6439;DHT22;3252;52.540;13.290;2023-04-03T12:09:33;5.20;57.00
6439;DHT22;3252;52.540;13.290;2023-04-03T12:11:36;5.20;57.60
6439;DHT22;3252;52.540;13.290;2023-04-03T12:13:40;5.30;60.00
6439;DHT22;3252;52.540;13.290;2023-04-03T12:15:52;5.50;57.00
6439;DHT22;3252;52.540;13.290;2023-04-03T12:17:56;5.40;56.80
6439;DHT22;3252;52.540;13.290;2023-04-03T12:19:58;5.30;56.60
6439;DHT22;3252;52.540;13.290;2023-04-03T12:22:21;5.20;57.90
6439;DHT22;3252;52.540;13.290;2023-04-03T12:24:25;5.20;56.90
6439;DHT22;3252;52.540;13.290;2023-04-03T12:26:32;5.30;58.60
6439;DHT22;3252;52.540;13.290;2023-04-03T12:28:38;5.40;58.60
6439;DHT22;3252;52.540;13.290;2023-04-03T12:30:42;5.50;59.90
6439;DHT22;3252;52.540;13.290;2023-04-03T12:33:04;5.40;58.50
6439;DHT22;3252;52.540;13.290;2023-04-03T12:35:21;5.40;60.30
6439;DHT22;3252;52.540;13.290;2023-04-03T12:37:39;5.60;60.20
6439;DHT22;3252;52.540;13.290;2023-04-03T12:39:59;5.70;68.50
6439;DHT22;3252;52.540;13.290;2023-04-03T12:42:18;5.70;62.30
6439;DHT22;3252;52.540;13.290;2023-04-03T12:44:44;5.70;59.00
6439;DHT22;3252;52.540;13.290;2023-04-03T12:46:49;5.60;57.70
6439;DHT22;3252;52.540;13.290;2023-04-03T12:48:56;5.70;57.60
6439;DHT22;3252;52.540;13.290;2023-04-03T12:50:59;5.90;62.90
6439;DHT22;3252;52.540;13.290;2023-04-03T12:53:04;5.90;57.80
6439;DHT22;3252;52.540;13.290;2023-04-03T12:55:17;6.20;57.90
6439;DHT22;3252;52.540;13.290;2023-04-03T12:57:23;6.30;53.60
6439;DHT22;3252;52.540;13.290;2023-04-03T12:59:26;6.20;53.10
6439;DHT22;3252;52.540;13.290;2023-04-03T13:01:29;6.20;54.90
6439;DHT22;3252;52.540;13.290;2023-04-03T13:03:31;5.80;54.10
6439;DHT22;3252;52.540;13.290;2023-04-03T13:05:35;5.80;55.30
6439;DHT22;3252;52.540;13.290;2023-04-03T13:07:38;5.70;54.20
6439;DHT22;3252;52.540;13.290;2023-04-03T13:09:41;5.70;53.90
6439;DHT22;3252;52.540;13.290;2023-04-03T13:11:44;5.70;54.30
6439;DHT22;3252;52.540;13.290;2023-04-03T13:13:58;5.70;58.10
6439;DHT22;3252;52.540;13.290;2023-04-03T13:16:08;5.60;56.50
6439;DHT22;3252;52.540;13.290;2023-04-03T13:18:25;5.60;58.40
6439;DHT22;3252;52.540;13.290;2023-04-03T13:20:30;5.50;60.50
6439;DHT22;3252;52.540;13.290;2023-04-03T13:22:37;5.30;57.90
6439;DHT22;3252;52.540;13.290;2023-04-03T13:24:46;5.30;59.90
6439;DHT22;3252;52.540;13.290;2023-04-03T13:26:52;5.30;59.80
6439;DHT22;3252;52.540;13.290;2023-04-03T13:28:57;5.30;63.20
6439;DHT22;3252;52.540;13.290;2023-04-03T13:31:08;5.30;68.00
6439;DHT22;3252;52.540;13.290;2023-04-03T13:33:22;5.40;69.50
6439;DHT22;3252;52.540;13.290;2023-04-03T13:35:29;5.50;69.20
6439;DHT22;3252;52.540;13.290;2023-04-03T13:37:34;5.40;61.50
6439;DHT22;3252;52.540;13.290;2023-04-03T13:39:38;5.40;61.20
6439;DHT22;3252;52.540;13.290;2023-04-03T13:41:42;5.30;61.70
6439;DHT22;3252;52.540;13.290;2023-04-03T13:43:44;5.30;63.00
6439;DHT22;3252;52.540;13.290;2023-04-03T13:46:00;5.40;60.90
6439;DHT22;3252;52.540;13.290;2023-04-03T13:48:15;5.30;59.60
6439;DHT22;3252;52.540;13.290;2023-04-03T13:50:20;5.40;59.50
6439;DHT22;3252;52.540;13.290;2023-04-03T13:52:27;5.40;60.60
6439;DHT22;3252;52.540;13.290;2023-04-03T13:54:34;5.40;61.50